Time;durP1;ratioP1;P1;durP2;ratioP2;P2;SDS_P1;SDS_P2;PMS_P1;PMS_P2;Temp;Humidity;BMP_temperature;BMP_pressure;BME280_temperature;BME280_humidity;BME280_pressure;Samples;Min_cycle;Max_cycle;Signal;HPM_P1;HPM_P2
2023/02/21 02:14:49;;;;;;;3.00;2.30;;;7.60;99.90;;;;;;5056715;28;20868;-43
2023/02/21 02:17:19;;;;;;;3.33;2.40;;;7.60;99.90;;;;;;5055156;28;20486;-43
2023/02/21 02:19:54;;;;;;;5.17;2.73;;;7.60;99.90;;;;;;5057220;28;20412;-43
2023/02/21 02:22:19;;;;;;;2.60;2.20;;;7.60;99.90;;;;;;5056546;28;20435;-42
2023/02/21 02:25:12;;;;;;;2.67;2.27;;;7.60;99.90;;;;;;5055854;28;20485;-42
2023/02/21 02:27:41;;;;;;;3.83;2.73;;;7.60;99.90;;;;;;5055182;28;20238;-44
2023/02/21 02:30:13;;;;;;;4.17;2.93;;;7.60;99.90;;;;;;5056356;28;20557;-43
2023/02/21 02:32:44;;;;;;;2.50;2.27;;;7.60;99.90;;;;;;5056341;28;20424;-44
2023/02/21 02:35:21;;;;;;;4.27;3.10;;;7.50;99.90;;;;;;5056216;28;20504;-42
2023/02/21 02:37:58;;;;;;;3.90;2.73;;;7.50;99.90;;;;;;5056442;28;20435;-43
2023/02/21 02:40:29;;;;;;;2.60;2.37;;;7.50;99.90;;;;;;5054813;28;20498;-42
2023/02/21 02:43:07;;;;;;;4.80;2.33;;;7.50;99.90;;;;;;5054871;28;20428;-43
2023/02/21 02:45:43;;;;;;;3.03;2.37;;;7.40;99.90;;;;;;5054767;28;20662;-42
2023/02/21 02:48:21;;;;;;;3.87;2.87;;;7.50;99.90;;;;;;5053443;28;20435;-42
2023/02/21 02:50:49;;;;;;;4.83;2.50;;;7.40;99.90;;;;;;5053661;28;20943;-44
2023/02/21 02:53:19;;;;;;;3.60;2.60;;;7.40;99.90;;;;;;5053743;28;20707;-43
2023/02/21 02:55:56;;;;;;;4.50;2.73;;;7.40;99.90;;;;;;5055209;28;20408;-42
2023/02/21 02:58:28;;;;;;;4.43;3.30;;;7.40;99.90;;;;;;5055970;28;20442;-43
2023/02/21 03:01:24;;;;;;;4.50;2.97;;;7.40;99.90;;;;;;5055697;28;20408;-43
2023/02/21 03:04:02;;;;;;;5.40;2.93;;;7.40;99.90;;;;;;5055270;28;20412;-44
2023/02/21 03:06:42;;;;;;;3.17;2.90;;;7.30;99.90;;;;;;5055075;28;20522;-44
2023/02/21 03:09:14;;;;;;;4.83;2.50;;;7.40;99.90;;;;;;5054928;28;20636;-42
2023/02/21 03:12:06;;;;;;;2.40;2.20;;;7.30;99.90;;;;;;5054463;28;20444;-42
2023/02/21 03:14:40;;;;;;;3.70;2.17;;;7.30;99.90;;;;;;5024103;28;20559;-44
2023/02/21 03:17:09;;;;;;;3.00;2.67;;;7.30;99.90;;;;;;5053185;28;20969;-42
2023/02/21 03:19:39;;;;;;;3.70;3.10;;;7.30;99.90;;;;;;5053925;28;20415;-44
2023/02/21 03:22:09;;;;;;;5.93;2.30;;;7.30;99.90;;;;;;5053882;28;20558;-43
2023/02/21 03:24:37;;;;;;;3.30;2.27;;;7.30;99.90;;;;;;5053232;28;20427;-43
2023/02/21 03:27:05;;;;;;;3.10;2.57;;;7.30;99.90;;;;;;5053094;28;20475;-43
2023/02/21 03:29:32;;;;;;;2.87;2.57;;;7.30;99.90;;;;;;5053702;28;20508;-42
2023/02/21 03:34:41;;;;;;;7.43;2.80;;;7.30;99.90;;;;;;5055477;28;20397;-43
2023/02/21 03:37:08;;;;;;;2.67;2.17;;;7.30;99.90;;;;;;5054233;28;20432;-44
2023/02/21 03:39:34;;;;;;;4.30;2.53;;;7.20;99.90;;;;;;5055387;28;20708;-42
2023/02/21 03:42:00;;;;;;;2.90;2.60;;;7.20;99.90;;;;;;5055420;28;20799;-43
2023/02/21 03:44:25;;;;;;;4.50;2.57;;;7.20;99.90;;;;;;5055565;28;20395;-44
2023/02/21 03:46:51;;;;;;;3.43;2.40;;;7.20;99.90;;;;;;5055048;28;20230;-45
2023/02/21 03:49:16;;;;;;;3.20;2.73;;;7.10;99.90;;;;;;5055227;28;20205;-42
2023/02/21 03:51:42;;;;;;;4.70;2.50;;;7.10;1.00;;;;;;5055399;28;20239;-42
2023/02/21 03:54:08;;;;;;;3.23;2.60;;;7.00;1.00;;;;;;5056054;28;20170;-44
2023/02/21 03:56:33;;;;;;;3.13;2.77;;;7.00;1.00;;;;;;5055520;28;20564;-41
2023/02/21 03:58:59;;;;;;;2.53;2.20;;;7.00;1.00;;;;;;5054129;28;20193;-43
2023/02/21 04:01:25;;;;;;;4.40;2.93;;;6.90;1.00;;;;;;5052269;28;20456;-42
2023/02/21 04:03:50;;;;;;;3.83;2.83;;;6.90;1.00;;;;;;5054614;28;20174;-42
2023/02/21 04:06:16;;;;;;;3.30;2.70;;;6.90;1.00;;;;;;5056114;28;20500;-43
2023/02/21 04:08:42;;;;;;;3.87;2.70;;;6.90;1.00;;;;;;5055309;28;20229;-43
2023/02/21 04:11:08;;;;;;;3.13;2.33;;;6.80;1.00;;;;;;5055231;28;20551;-45
2023/02/21 04:13:33;;;;;;;3.90;2.83;;;6.80;1.00;;;;;;5055382;28;20277;-41
2023/02/21 04:15:59;;;;;;;2.77;2.40;;;6.80;1.00;;;;;;5055731;28;20417;-42
2023/02/21 04:18:24;;;;;;;3.00;2.57;;;6.80;1.00;;;;;;5055175;28;20425;-44
2023/02/21 04:20:50;;;;;;;4.60;2.60;;;6.70;1.00;;;;;;5055888;28;20181;-42
2023/02/21 04:23:18;;;;;;;2.73;2.53;;;6.70;1.00;;;;;;5057868;28;20276;-42
2023/02/21 04:25:43;;;;;;;4.90;2.70;;;6.70;1.00;;;;;;5057773;28;20427;-44
2023/02/21 04:28:09;;;;;;;3.40;2.83;;;6.70;1.00;;;;;;5056825;28;20836;-41
2023/02/21 04:30:35;;;;;;;3.03;2.50;;;6.60;1.00;;;;;;5056738;28;20265;-42
2023/02/21 04:33:02;;;;;;;3.10;2.77;;;6.60;1.00;;;;;;5056282;28;20170;-43
2023/02/21 04:35:28;;;;;;;3.57;2.53;;;6.60;1.00;;;;;;5057822;28;20182;-41
2023/02/21 04:37:53;;;;;;;3.20;2.70;;;6.50;1.00;;;;;;5057486;28;20424;-42
2023/02/21 04:40:19;;;;;;;5.83;3.60;;;6.50;1.00;;;;;;5057359;28;20276;-43
2023/02/21 04:42:45;;;;;;;3.37;3.00;;;6.50;1.00;;;;;;5056656;28;20176;-43
2023/02/21 04:45:10;;;;;;;4.77;3.17;;;6.50;1.00;;;;;;5057019;28;20253;-42
2023/02/21 04:47:36;;;;;;;4.30;3.20;;;6.40;1.00;;;;;;5055984;28;20299;-42
2023/02/21 04:50:03;;;;;;;3.43;2.90;;;6.40;1.00;;;;;;5055983;28;20889;-43
2023/02/21 04:52:28;;;;;;;4.80;3.13;;;6.40;1.00;;;;;;5055498;28;20571;-43
2023/02/21 04:54:54;;;;;;;6.73;3.80;;;6.40;1.00;;;;;;5055966;28;20412;-42
2023/02/21 04:57:20;;;;;;;3.80;3.20;;;6.40;1.00;;;;;;5056966;28;20170;-43
2023/02/21 04:59:45;;;;;;;4.23;3.40;;;6.30;1.00;;;;;;5056514;28;20255;-42
2023/02/21 05:02:11;;;;;;;5.37;3.67;;;6.30;1.00;;;;;;5056000;28;20205;-42
2023/02/21 05:04:37;;;;;;;4.30;3.50;;;6.30;1.00;;;;;;5056530;28;20585;-42
2023/02/21 05:07:04;;;;;;;3.80;3.00;;;6.30;1.00;;;;;;5056451;28;20185;-42
2023/02/21 05:09:30;;;;;;;4.17;3.00;;;6.30;1.00;;;;;;5057172;28;20885;-43
2023/02/21 05:11:55;;;;;;;3.30;2.77;;;6.30;1.00;;;;;;5056721;28;20444;-43
2023/02/21 05:14:21;;;;;;;4.57;3.53;;;6.30;1.00;;;;;;5057110;28;20432;-42
2023/02/21 05:16:47;;;;;;;4.40;3.23;;;6.20;1.00;;;;;;5055275;28;20177;-42
2023/02/21 05:19:12;;;;;;;4.77;3.30;;;6.20;1.00;;;;;;5056021;28;20571;-42
2023/02/21 05:21:38;;;;;;;3.37;3.07;;;6.20;1.00;;;;;;5056433;28;20178;-42
2023/02/21 05:24:05;;;;;;;4.53;4.07;;;6.20;1.00;;;;;;5056022;28;20177;-42
2023/02/21 05:26:35;;;;;;;4.30;2.80;;;6.20;1.00;;;;;;5055229;28;20226;-43
2023/02/21 05:29:01;;;;;;;4.07;3.50;;;6.20;1.00;;;;;;5054408;28;20775;-42
2023/02/21 05:31:27;;;;;;;6.50;3.17;;;6.10;1.00;;;;;;5053854;28;20428;-42
2023/02/21 05:33:53;;;;;;;3.50;3.20;;;6.10;1.00;;;;;;5052664;28;21029;-42
2023/02/21 05:36:20;;;;;;;4.93;3.50;;;6.10;1.00;;;;;;5052251;28;20436;-42
2023/02/21 05:38:51;;;;;;;3.80;2.93;;;6.10;1.00;;;;;;5050634;28;20170;-42
2023/02/21 05:41:17;;;;;;;4.03;2.83;;;6.00;1.00;;;;;;5051393;28;20745;-41
2023/02/21 05:43:47;;;;;;;5.80;3.60;;;6.00;1.00;;;;;;5052806;28;20417;-42
2023/02/21 05:46:18;;;;;;;3.43;3.13;;;6.00;1.00;;;;;;5053161;28;20720;-42
2023/02/21 05:48:44;;;;;;;5.67;3.33;;;6.00;1.00;;;;;;5053475;28;20499;-42
2023/02/21 05:51:10;;;;;;;3.87;2.70;;;6.00;1.00;;;;;;5054247;28;20617;-41
2023/02/21 05:53:35;;;;;;;4.33;3.10;;;5.90;1.00;;;;;;5051720;28;20911;-43
2023/02/21 05:56:01;;;;;;;4.27;3.63;;;5.90;1.00;;;;;;5053829;28;20272;-44
2023/02/21 05:58:27;;;;;;;3.30;3.00;;;5.90;1.00;;;;;;5054453;28;20552;-42
2023/02/21 06:00:53;;;;;;;4.43;3.33;;;5.80;1.00;;;;;;5053321;28;20485;-41
2023/02/21 06:03:18;;;;;;;4.37;3.40;;;5.80;1.00;;;;;;5054554;28;20192;-43
2023/02/21 06:05:44;;;;;;;4.53;3.40;;;5.80;1.00;;;;;;5053851;28;20512;-43
2023/02/21 06:08:11;;;;;;;5.00;3.53;;;5.80;1.00;;;;;;5054599;28;20448;-42
2023/02/21 06:10:36;;;;;;;4.90;3.73;;;5.80;1.00;;;;;;5053156;28;20205;-42
2023/02/21 06:13:02;;;;;;;5.00;4.10;;;5.70;1.00;;;;;;5053285;28;20716;-43
2023/02/21 06:15:27;;;;;;;5.60;4.20;;;5.70;1.00;;;;;;5052082;28;20547;-42
2023/02/21 06:17:53;;;;;;;6.37;4.50;;;5.70;1.00;;;;;;5052121;28;20174;-42
2023/02/21 06:20:19;;;;;;;4.37;3.83;;;5.70;1.00;;;;;;5052094;28;20425;-44
2023/02/21 06:22:46;;;;;;;6.33;4.90;;;5.70;1.00;;;;;;5051717;28;20261;-44
2023/02/21 06:25:11;;;;;;;6.10;5.10;;;5.70;1.00;;;;;;5051754;28;20240;-44
2023/02/21 06:27:37;;;;;;;5.30;4.70;;;5.70;1.00;;;;;;5048596;28;20956;-43
2023/02/21 06:30:04;;;;;;;5.30;4.80;;;5.70;1.00;;;;;;5050590;28;20228;-44
2023/02/21 06:32:29;;;;;;;5.43;4.60;;;5.70;1.00;;;;;;5051176;28;20209;-42
2023/02/21 06:34:55;;;;;;;5.27;4.70;;;5.70;1.00;;;;;;5052681;28;20447;-42
2023/02/21 06:37:21;;;;;;;6.00;5.07;;;5.70;1.00;;;;;;5050914;28;20181;-42
2023/02/21 06:39:47;;;;;;;8.80;7.20;;;5.70;1.00;;;;;;5053666;28;20427;-42
2023/02/21 06:42:13;;;;;;;19.07;12.97;;;5.70;1.00;;;;;;5053349;28;20780;-42
2023/02/21 06:44:41;;;;;;;17.17;11.77;;;5.80;1.00;;;;;;5052927;28;20225;-42
2023/02/21 06:47:07;;;;;;;18.73;12.90;;;6.20;1.00;;;;;;5052664;28;20433;-42
2023/02/21 06:49:32;;;;;;;15.50;9.63;;;6.60;1.00;;;;;;5052326;28;20467;-43
2023/02/21 06:51:58;;;;;;;13.63;9.77;;;6.80;1.00;;;;;;5053933;28;20181;-43
2023/02/21 06:54:24;;;;;;;11.37;8.53;;;7.00;1.00;;;;;;5052752;28;20184;-42
2023/02/21 06:56:49;;;;;;;10.93;8.20;;;7.00;1.00;;;;;;5054985;28;20452;-44
2023/02/21 06:59:15;;;;;;;9.90;8.10;;;7.00;1.00;;;;;;5053412;28;20426;-43
2023/02/21 07:01:41;;;;;;;10.30;7.70;;;7.00;1.00;;;;;;5052885;28;20443;-45
2023/02/21 07:04:06;;;;;;;8.03;6.70;;;7.00;1.00;;;;;;5053223;28;20177;-42
2023/02/21 07:06:32;;;;;;;8.33;5.80;;;7.00;1.00;;;;;;5052025;28;20182;-42
2023/02/21 07:08:58;;;;;;;8.07;7.23;;;7.10;1.00;;;;;;5052030;28;20174;-42
2023/02/21 07:11:23;;;;;;;8.27;6.63;;;7.20;1.00;;;;;;5051531;28;20209;-42
2023/02/21 07:13:50;;;;;;;7.37;5.90;;;7.40;1.00;;;;;;5049509;28;20443;-42
2023/02/21 07:16:16;;;;;;;7.77;6.20;;;7.70;1.00;;;;;;5050208;28;20181;-43
2023/02/21 07:18:43;;;;;;;6.13;5.50;;;7.90;1.00;;;;;;5051743;28;20408;-42
2023/02/21 07:21:10;;;;;;;11.13;5.13;;;8.20;1.00;;;;;;5051643;28;20540;-42
2023/02/21 07:23:35;;;;;;;6.80;5.07;;;8.50;1.00;;;;;;5052225;28;20432;-42
2023/02/21 07:26:01;;;;;;;6.90;4.23;;;8.80;1.00;;;;;;5052612;28;20501;-43
2023/02/21 07:28:27;;;;;;;7.33;4.33;;;9.10;1.00;;;;;;5052653;28;20257;-43
2023/02/21 07:30:53;;;;;;;7.53;4.30;;;9.40;1.00;;;;;;5051123;28;20361;-43
2023/02/21 07:33:19;;;;;;;4.20;3.70;;;9.70;1.00;;;;;;5050711;28;20874;-43
2023/02/21 07:35:45;;;;;;;7.13;4.20;;;10.00;1.00;;;;;;5048896;28;20178;-41
2023/02/21 07:38:21;;;;;;;6.07;4.70;;;10.30;1.00;;;;;;5051703;28;20261;-42
2023/02/21 07:40:47;;;;;;;5.90;4.43;;;10.60;1.00;;;;;;5056452;28;20603;-42
2023/02/21 07:43:13;;;;;;;4.23;3.53;;;10.90;1.00;;;;;;5054558;28;20510;-46
2023/02/21 07:45:38;;;;;;;4.43;4.03;;;11.20;1.00;;;;;;5053896;28;20165;-43
2023/02/21 07:48:04;;;;;;;5.13;4.23;;;11.50;1.00;;;;;;5053579;28;20186;-43
2023/02/21 07:50:30;;;;;;;5.13;4.10;;;11.80;1.00;;;;;;5052358;28;20479;-45
2023/02/21 07:52:58;;;;;;;6.30;5.00;;;12.10;1.00;;;;;;5052892;28;20251;-44
2023/02/21 07:55:24;;;;;;;4.83;4.23;;;12.40;1.00;;;;;;5052945;28;20262;-43
2023/02/21 07:57:50;;;;;;;5.00;4.17;;;12.70;1.00;;;;;;5053554;28;20834;-40
2023/02/21 08:00:15;;;;;;;7.00;4.90;;;13.00;1.00;;;;;;5053570;28;20176;-42
2023/02/21 08:02:47;;;;;;;6.00;5.40;;;13.30;1.00;;;;;;5053906;28;20186;-45
2023/02/21 08:05:14;;;;;;;6.00;5.23;;;13.70;1.00;;;;;;5055001;28;20511;-42
2023/02/21 08:07:40;;;;;;;6.67;5.97;;;14.00;1.00;;;;;;5037125;28;20448;-43
2023/02/21 08:10:06;;;;;;;6.53;5.93;;;14.40;1.00;;;;;;5055605;28;20532;-42
2023/02/21 08:12:32;;;;;;;7.33;6.13;;;14.80;1.00;;;;;;5055369;28;20178;-42
2023/02/21 08:14:57;;;;;;;6.37;5.77;;;15.20;1.00;;;;;;5056835;28;20415;-42
2023/02/21 08:17:24;;;;;;;6.10;5.17;;;15.60;1.00;;;;;;5055200;28;20185;-43
2023/02/21 08:19:49;;;;;;;6.20;5.60;;;16.00;1.00;;;;;;5054804;28;20238;-42
2023/02/21 08:22:15;;;;;;;6.93;6.10;;;16.50;1.00;;;;;;5056315;28;20591;-42
2023/02/21 08:24:41;;;;;;;6.43;5.33;;;16.90;1.00;;;;;;5057527;28;20416;-42
2023/02/21 08:27:06;;;;;;;6.20;5.20;;;17.40;1.00;;;;;;5054969;28;20261;-42
2023/02/21 08:29:32;;;;;;;6.80;4.53;;;17.80;1.00;;;;;;5054350;28;20268;-41
2023/02/21 08:31:58;;;;;;;4.83;3.47;;;18.20;1.00;;;;;;5036481;28;20460;-42
2023/02/21 08:34:24;;;;;;;4.90;3.63;;;18.70;1.00;;;;;;5047251;28;20552;-42
2023/02/21 08:36:50;;;;;;;4.57;3.40;;;19.10;1.00;;;;;;5054206;28;20523;-42
2023/02/21 08:39:15;;;;;;;6.10;3.30;;;19.50;1.00;;;;;;5054079;28;20484;-42
2023/02/21 08:41:44;;;;;;;3.80;2.60;;;20.00;1.00;;;;;;5054946;28;20497;-42
2023/02/21 08:44:11;;;;;;;4.00;3.23;;;20.40;1.00;;;;;;5054450;28;20437;-44
2023/02/21 08:46:38;;;;;;;6.20;3.50;;;20.80;1.00;;;;;;5054617;28;20421;-42
2023/02/21 08:49:04;;;;;;;3.80;3.00;;;21.30;1.00;;;;;;5051110;28;20712;-42
2023/02/21 08:51:31;;;;;;;4.33;3.67;;;21.70;1.00;;;;;;5054521;28;20491;-42
2023/02/21 08:53:57;;;;;;;6.30;3.67;;;22.20;1.00;;;;;;5054990;28;20417;-42
2023/02/21 08:56:24;;;;;;;8.80;3.70;;;22.70;1.00;;;;;;5038247;28;20436;-45
2023/02/21 08:58:53;;;;;;;6.10;3.30;;;23.10;1.00;;;;;;5054617;28;20713;-42
2023/02/21 09:01:19;;;;;;;3.80;2.87;;;23.60;1.00;;;;;;5055683;28;20432;-43
2023/02/21 09:03:45;;;;;;;4.93;3.37;;;24.10;1.00;;;;;;5056401;28;20423;-42
2023/02/21 09:06:12;;;;;;;5.00;3.30;;;24.50;1.00;;;;;;5055673;28;20420;-43
2023/02/21 09:08:39;;;;;;;4.53;2.93;;;24.90;1.00;;;;;;5053362;28;20468;-42
2023/02/21 09:11:05;;;;;;;4.33;2.67;;;25.40;1.00;;;;;;5054481;28;20468;-42
2023/02/21 09:13:31;;;;;;;4.93;3.20;;;25.90;1.00;;;;;;5056223;28;20428;-44
2023/02/21 09:15:58;;;;;;;4.13;3.00;;;26.30;1.00;;;;;;5053790;28;20512;-45
2023/02/21 09:18:24;;;;;;;3.50;2.93;;;26.80;1.00;;;;;;5053299;28;20499;-42
2023/02/21 09:20:50;;;;;;;2.80;2.50;;;27.20;1.00;;;;;;5052001;28;20416;-45
2023/02/21 09:23:19;;;;;;;4.40;2.90;;;27.60;1.00;;;;;;5050873;28;20462;-43
2023/02/21 09:25:46;;;;;;;4.07;3.57;;;28.10;1.00;;;;;;5051871;28;20413;-44
2023/02/21 09:28:12;;;;;;;3.23;2.50;;;28.50;1.00;;;;;;5051556;28;20519;-46
2023/02/21 09:30:37;;;;;;;3.63;3.03;;;28.90;1.00;;;;;;5052598;28;20463;-44
2023/02/21 09:33:05;;;;;;;4.80;3.23;;;29.30;1.00;;;;;;5051535;28;20458;-44
2023/02/21 09:35:35;;;;;;;3.67;2.67;;;29.80;1.00;;;;;;5034049;28;20217;-44
2023/02/21 09:38:02;;;;;;;5.13;3.47;;;30.10;1.00;;;;;;5043871;28;20438;-43
2023/02/21 09:40:49;;;;;;;5.20;2.90;;;30.60;1.00;;;;;;5053816;28;20196;-44
2023/02/21 09:43:27;;;;;;;4.50;2.70;;;30.90;1.00;;;;;;5054031;28;20407;-43
2023/02/21 09:45:55;;;;;;;3.07;2.60;;;31.40;1.00;;;;;;5053879;28;20785;-45
2023/02/21 09:48:22;;;;;;;2.93;2.33;;;31.90;1.00;;;;;;5053438;28;20434;-46
2023/02/21 09:50:51;;;;;;;2.60;2.40;;;32.30;1.00;;;;;;5053809;28;20558;-46
2023/02/21 09:53:21;;;;;;;3.60;2.60;;;32.70;1.00;;;;;;5054004;28;20459;-45
2023/02/21 09:55:48;;;;;;;4.23;2.90;;;33.20;1.00;;;;;;5053392;28;20426;-46
2023/02/21 09:58:17;;;;;;;3.80;2.60;;;33.60;1.00;;;;;;5053176;28;20497;-44
2023/02/21 10:00:42;;;;;;;5.60;2.50;;;34.00;1.00;;;;;;5054089;28;20499;-47
2023/02/21 10:03:27;;;;;;;2.50;2.07;;;34.30;1.00;;;;;;5053764;28;20428;-50
2023/02/21 10:05:59;;;;;;;3.47;2.20;;;34.80;1.00;;;;;;5053828;28;20170;-45
2023/02/21 10:08:46;;;;;;;1.97;1.70;;;35.10;1.00;;;;;;5052268;28;20443;-46
2023/02/21 10:11:32;;;;;;;2.43;1.20;;;35.40;1.00;;;;;;5052439;28;20717;-44
2023/02/21 10:14:17;;;;;;;2.43;1.40;;;35.50;1.00;;;;;;5051192;28;20408;-45
2023/02/21 10:16:52;;;;;;;6.30;1.37;;;35.50;1.00;;;;;;5050973;28;20505;-46
2023/02/21 10:19:30;;;;;;;2.03;1.47;;;35.60;1.00;;;;;;5051811;28;20420;-45
2023/02/21 10:21:59;;;;;;;3.77;1.70;;;35.80;1.00;;;;;;5049963;28;20395;-44
2023/02/21 10:24:26;;;;;;;4.40;1.60;;;35.90;1.00;;;;;;5050242;28;20407;-46
2023/02/21 10:27:06;;;;;;;4.33;1.70;;;35.90;1.00;;;;;;5050294;28;20488;-46
2023/02/21 10:30:10;;;;;;;4.03;1.60;;;35.90;1.00;;;;;;5048173;28;20510;-44
2023/02/21 10:32:37;;;;;;;4.40;1.67;;;35.90;1.00;;;;;;4989385;28;20844;-47
2023/02/21 10:35:04;;;;;;;1.97;1.17;;;35.90;1.00;;;;;;4972885;28;20454;-45
2023/02/21 10:37:40;;;;;;;3.70;1.30;;;36.00;1.00;;;;;;5017767;28;20442;-46
2023/02/21 10:40:38;;;;;;;2.80;1.30;;;35.80;1.00;;;;;;5049378;28;20416;-45
2023/02/21 10:43:17;;;;;;;3.80;1.93;;;35.90;1.00;;;;;;5017699;28;20436;-50
2023/02/21 10:46:10;;;;;;;2.07;1.20;;;36.10;1.00;;;;;;5035113;28;20434;-44
2023/02/21 10:48:37;;;;;;;3.10;1.80;;;36.10;1.00;;;;;;5052701;28;20510;-45
2023/02/21 10:51:08;;;;;;;3.10;1.30;;;36.40;1.00;;;;;;5052184;28;20584;-46
2023/02/21 10:53:39;;;;;;;1.97;0.90;;;36.70;1.00;;;;;;5051908;28;20419;-45
2023/02/21 10:56:19;;;;;;;3.97;1.80;;;37.00;1.00;;;;;;5052240;28;20409;-47
2023/02/21 10:58:51;;;;;;;1.70;1.00;;;37.40;1.00;;;;;;5053426;28;20419;-45
2023/02/21 11:01:40;;;;;;;2.07;1.03;;;37.90;1.00;;;;;;5053573;28;20503;-46
2023/02/21 11:04:21;;;;;;;2.13;1.30;;;38.40;1.00;;;;;;5050750;28;20439;-45
2023/02/21 11:07:07;;;;;;;2.43;1.43;;;38.90;1.00;;;;;;5050805;28;20566;-47
2023/02/21 11:09:42;;;;;;;1.80;1.30;;;39.50;1.00;;;;;;5049783;28;20908;-46
2023/02/21 11:12:17;;;;;;;1.70;1.13;;;39.70;1.00;;;;;;5051165;28;20419;-44
2023/02/21 11:15:05;;;;;;;3.43;1.30;;;39.80;1.00;;;;;;5053151;28;20668;-49
2023/02/21 11:17:32;;;;;;;2.83;1.47;;;40.10;1.00;;;;;;5056447;28;20444;-45
2023/02/21 11:20:07;;;;;;;2.37;1.10;;;40.50;1.00;;;;;;5056996;28;20675;-49
2023/02/21 11:22:42;;;;;;;2.23;1.20;;;40.70;1.00;;;;;;5057026;28;20806;-44
2023/02/21 11:25:17;;;;;;;1.63;1.30;;;40.90;1.00;;;;;;5055463;28;20478;-46
2023/02/21 11:27:44;;;;;;;2.33;1.10;;;41.20;1.00;;;;;;5056311;28;20476;-45
2023/02/21 11:30:21;;;;;;;2.00;1.10;;;41.50;1.00;;;;;;5053987;28;20420;-48
2023/02/21 11:32:52;;;;;;;1.93;0.90;;;41.60;1.00;;;;;;5052200;28;20531;-45
2023/02/21 11:35:25;;;;;;;1.53;0.93;;;41.90;1.00;;;;;;5050329;28;20539;-47
2023/02/21 11:37:57;;;;;;;1.40;0.80;;;42.10;1.00;;;;;;5049446;28;20703;-46
2023/02/21 11:40:51;;;;;;;1.97;1.20;;;42.40;1.00;;;;;;5052587;28;20612;-55
2023/02/21 11:43:19;;;;;;;1.60;1.00;;;42.60;1.00;;;;;;5047249;28;20432;-44
2023/02/21 11:45:54;;;;;;;2.20;1.47;;;42.70;1.00;;;;;;5052858;28;20416;-46
2023/02/21 11:48:26;;;;;;;1.50;1.00;;;43.00;1.00;;;;;;5054598;28;20706;-45
2023/02/21 11:50:52;;;;;;;1.27;0.90;;;43.20;1.00;;;;;;5053968;28;20443;-48
2023/02/21 11:53:20;;;;;;;1.60;1.20;;;43.40;1.00;;;;;;5052776;28;20428;-46
2023/02/21 11:55:57;;;;;;;1.97;1.00;;;43.50;1.00;;;;;;5053588;28;20424;-46
2023/02/21 11:58:33;;;;;;;1.40;1.00;;;43.60;1.00;;;;;;5052559;28;20427;-45
2023/02/21 12:01:05;;;;;;;1.80;1.13;;;43.90;1.00;;;;;;5053518;28;21043;-46
2023/02/21 12:03:39;;;;;;;1.40;1.07;;;44.00;1.00;;;;;;5053960;28;20435;-46
2023/02/21 12:06:39;;;;;;;2.07;0.90;;;44.20;1.00;;;;;;5054567;28;21041;-46
2023/02/21 12:09:17;;;;;;;1.20;0.93;;;44.30;1.00;;;;;;5054293;28;20411;-45
2023/02/21 12:11:49;;;;;;;1.50;1.20;;;44.40;1.00;;;;;;5055372;28;20435;-46
2023/02/21 12:14:21;;;;;;;1.40;1.00;;;44.40;1.00;;;;;;5053417;28;20834;-45
2023/02/21 12:17:05;;;;;;;1.40;1.00;;;44.60;1.00;;;;;;5055858;28;20473;-46
2023/02/21 12:19:39;;;;;;;1.33;0.90;;;44.90;1.00;;;;;;5054321;28;20738;-44
2023/02/21 12:22:14;;;;;;;2.07;1.03;;;45.00;1.00;;;;;;5053649;28;20458;-45
2023/02/21 12:25:08;;;;;;;1.27;1.07;;;45.30;1.00;;;;;;5054542;28;20509;-46
2023/02/21 12:27:54;;;;;;;1.47;0.80;;;45.40;1.00;;;;;;5053629;28;20743;-45
2023/02/21 12:30:35;;;;;;;1.47;0.97;;;45.70;1.00;;;;;;5054897;28;20424;-46
2023/02/21 12:33:08;;;;;;;1.13;0.83;;;45.70;1.00;;;;;;5054937;28;20893;-45
2023/02/21 12:35:52;;;;;;;4.23;1.10;;;45.70;1.00;;;;;;5051248;28;20666;-45
2023/02/21 12:38:53;;;;;;;1.30;0.93;;;45.80;1.00;;;;;;5053506;28;20416;-50
2023/02/21 12:41:37;;;;;;;1.50;0.83;;;46.00;1.00;;;;;;5051543;28;20455;-48
2023/02/21 12:44:06;;;;;;;3.67;1.00;;;46.10;1.00;;;;;;5054007;28;20412;-47
2023/02/21 12:46:35;;;;;;;1.90;0.97;;;46.30;1.00;;;;;;5053991;28;20423;-45
2023/02/21 12:49:26;;;;;;;1.10;0.60;;;46.50;1.00;;;;;;5053515;28;20519;-46
2023/02/21 12:52:09;;;;;;;1.30;0.80;;;46.70;1.00;;;;;;5052896;28;20443;-48
2023/02/21 12:54:51;;;;;;;1.30;0.70;;;46.70;1.00;;;;;;5031480;28;20428;-45
2023/02/21 12:57:49;;;;;;;2.00;0.97;;;46.90;1.00;;;;;;5031573;28;20486;-47
2023/02/21 13:00:24;;;;;;;2.50;0.90;;;46.80;1.00;;;;;;5021720;28;20479;-46
2023/02/21 13:03:08;;;;;;;1.20;0.80;;;46.90;1.00;;;;;;5031813;28;20428;-45
2023/02/21 13:05:45;;;;;;;1.60;1.10;;;46.70;1.00;;;;;;5035196;28;20530;-46
2023/02/21 13:08:21;;;;;;;1.10;0.70;;;46.80;1.00;;;;;;5032074;28;20429;-47
2023/02/21 13:10:55;;;;;;;1.50;1.00;;;47.00;1.00;;;;;;5032791;28;20417;-46
2023/02/21 13:13:27;;;;;;;2.70;1.03;;;47.00;1.00;;;;;;5031927;28;20437;-45
2023/02/21 13:15:53;;;;;;;1.40;1.17;;;47.00;1.00;;;;;;5014062;28;20427;-45
2023/02/21 13:18:23;;;;;;;3.03;0.97;;;47.10;1.00;;;;;;5031277;28;20429;-45
2023/02/21 13:21:18;;;;;;;2.30;0.80;;;47.00;1.00;;;;;;5031942;28;20465;-46
2023/02/21 13:23:56;;;;;;;1.90;0.90;;;47.10;1.00;;;;;;5030860;28;20823;-45
2023/02/21 13:26:39;;;;;;;1.40;0.90;;;47.10;1.00;;;;;;5030296;28;20413;-45
2023/02/21 13:29:38;;;;;;;1.40;1.03;;;47.10;1.00;;;;;;5032831;28;20426;-45
2023/02/21 13:32:13;;;;;;;1.10;0.80;;;47.20;1.00;;;;;;5029048;28;20436;-46
2023/02/21 13:34:44;;;;;;;2.40;1.00;;;47.40;1.00;;;;;;5032256;28;20684;-46
2023/02/21 13:37:17;;;;;;;4.10;0.80;;;47.30;1.00;;;;;;5029841;28;20501;-46
2023/02/21 13:39:45;;;;;;;1.93;0.80;;;47.00;1.00;;;;;;5031994;28;20564;-45
2023/02/21 13:42:18;;;;;;;1.20;1.00;;;47.00;1.00;;;;;;5033673;28;20413;-47
2023/02/21 13:44:46;;;;;;;1.30;0.90;;;47.20;1.00;;;;;;5032451;28;20728;-46
2023/02/21 13:47:18;;;;;;;2.17;0.90;;;47.20;1.00;;;;;;5032487;28;20413;-47
2023/02/21 13:49:49;;;;;;;1.63;1.03;;;47.20;1.00;;;;;;5031363;28;20429;-47
2023/02/21 13:52:27;;;;;;;1.70;0.90;;;47.30;1.00;;;;;;5031869;28;20417;-46
2023/02/21 13:55:14;;;;;;;1.00;0.67;;;47.40;1.00;;;;;;5032976;28;20431;-46
2023/02/21 13:57:48;;;;;;;1.30;0.77;;;47.40;1.00;;;;;;5045206;28;20602;-45
2023/02/21 14:00:34;;;;;;;1.57;1.00;;;47.50;1.00;;;;;;5049664;28;20553;-46
2023/02/21 14:03:11;;;;;;;1.20;0.77;;;47.50;1.00;;;;;;5036859;28;20471;-46
2023/02/21 14:05:49;;;;;;;3.00;1.00;;;47.50;1.00;;;;;;5032406;28;20525;-46
2023/02/21 14:08:23;;;;;;;1.20;0.80;;;47.40;1.00;;;;;;5046889;28;20916;-48
2023/02/21 14:10:54;;;;;;;1.20;0.80;;;47.30;1.00;;;;;;5050664;28;20426;-47
2023/02/21 14:13:25;;;;;;;1.17;0.70;;;47.20;1.00;;;;;;5049607;28;20672;-47
2023/02/21 14:16:10;;;;;;;1.40;0.70;;;47.10;1.00;;;;;;5049189;28;20750;-46
2023/02/21 14:18:41;;;;;;;1.63;0.90;;;47.00;1.00;;;;;;5050150;28;20424;-45
2023/02/21 14:21:22;;;;;;;1.40;0.83;;;46.80;1.00;;;;;;5031013;28;20479;-46
2023/02/21 14:23:56;;;;;;;1.30;0.70;;;46.70;1.00;;;;;;5049047;28;20424;-46
2023/02/21 14:26:43;;;;;;;1.30;0.70;;;46.60;1.00;;;;;;5050145;28;20411;-48
2023/02/21 14:29:13;;;;;;;1.50;0.90;;;46.30;1.00;;;;;;5051819;28;20427;-47
2023/02/21 14:31:52;;;;;;;1.40;0.90;;;46.20;1.00;;;;;;5050760;28;20432;-49
2023/02/21 14:34:34;;;;;;;1.10;0.70;;;46.00;1.00;;;;;;5053434;28;20440;-47
2023/02/21 14:37:24;;;;;;;1.10;0.80;;;45.80;1.00;;;;;;5054461;28;20416;-47
2023/02/21 14:40:16;;;;;;;1.53;1.07;;;45.60;1.00;;;;;;5047520;28;20682;-46
2023/02/21 14:43:04;;;;;;;2.00;0.97;;;45.30;1.00;;;;;;5051053;28;20435;-46
2023/02/21 14:45:50;;;;;;;1.37;0.90;;;44.90;1.00;;;;;;5051326;28;20423;-46
2023/02/21 14:48:31;;;;;;;1.97;1.10;;;44.80;1.00;;;;;;5050297;28;20581;-48
2023/02/21 14:51:26;;;;;;;2.50;1.10;;;44.70;1.00;;;;;;5049536;28;20675;-45
2023/02/21 14:54:09;;;;;;;2.10;0.93;;;44.50;1.00;;;;;;5050319;28;20427;-46
2023/02/21 14:56:57;;;;;;;2.03;0.70;;;44.30;1.00;;;;;;5050679;28;20450;-45
2023/02/21 14:59:44;;;;;;;1.50;0.90;;;44.10;1.00;;;;;;5049468;28;20514;-46
2023/02/21 15:02:17;;;;;;;1.47;0.97;;;43.60;1.00;;;;;;5048637;28;20605;-48
2023/02/21 15:04:50;;;;;;;2.33;1.33;;;43.30;1.00;;;;;;5049500;28;20416;-46
2023/02/21 15:07:29;;;;;;;1.30;0.90;;;42.90;1.00;;;;;;5049771;28;20485;-47
2023/02/21 15:10:22;;;;;;;1.47;0.87;;;42.50;1.00;;;;;;5049502;28;20525;-45
2023/02/21 15:13:10;;;;;;;2.50;1.30;;;42.10;1.00;;;;;;5049685;28;20711;-46
2023/02/21 15:15:41;;;;;;;2.03;0.80;;;41.60;1.00;;;;;;5045791;28;20727;-48
2023/02/21 15:18:11;;;;;;;1.60;0.80;;;41.00;1.00;;;;;;5048889;28;20873;-45
2023/02/21 15:20:43;;;;;;;1.20;0.90;;;40.60;1.00;;;;;;5050397;28;20689;-47
2023/02/21 15:23:09;;;;;;;1.50;1.00;;;40.10;1.00;;;;;;5050602;28;20420;-46
2023/02/21 15:25:35;;;;;;;1.80;0.80;;;39.80;99.90;;;;;;5050450;28;20526;-45
2023/02/21 15:28:03;;;;;;;1.27;0.80;;;39.40;99.90;;;;;;5050387;28;20235;-45
2023/02/21 15:30:32;;;;;;;1.40;0.90;;;39.10;99.90;;;;;;5048653;28;20516;-47
2023/02/21 15:33:14;;;;;;;1.13;0.60;;;38.70;99.90;;;;;;5047780;28;20497;-44
2023/02/21 15:35:45;;;;;;;1.43;0.60;;;38.50;99.90;;;;;;5050279;28;20825;-46
2023/02/21 15:38:39;;;;;;;1.50;0.80;;;38.20;99.90;;;;;;5051871;28;20540;-45
2023/02/21 15:41:17;;;;;;;1.30;0.80;;;38.00;99.90;;;;;;5046831;28;20511;-47